In Rescue
 
Open Full Screen Window  High Contrast Mode
Wind Gusting 19 knots
14
May 13, 2021 10:52 AM CDT
Weather Information
Wind Direction
  200 °
Wind Speed
  14 kt (16 mph)
Wind Gust
  19 kt (22 mph)
Altimeter
30.28 in
Visibility
10 SM
Temperature
19° C
66° F
Dewpoint
-02° C
28° F
Humidity
24%
1hr Rain Fall
00.00 in.
24hr Rain Fall
00.00 in.
Sky Condition
Clear
VFR

METAR KSAZ 131552Z AUTO 20014G19KT 10SM CLR 19/M02 A3028 RMK AO2

FAA Disclaimer: The data displayed is for advisory purposes only and is not to be used for flight planning or operations.